Time;durP1;ratioP1;P1;durP2;ratioP2;P2;SDS_P1;SDS_P2;PMS_P1;PMS_P2;Temp;Humidity;BMP_temperature;BMP_pressure;BME280_temperature;BME280_humidity;BME280_pressure;Samples;Min_cycle;Max_cycle;Signal;HPM_P1;HPM_P2
2021/05/01 00:03:36;;;;;;;21.47;14.60;;;;;;;;;;10485907;28;20211;-69
2021/05/01 00:08:39;;;;;;;21.57;14.83;;;;;;;;;;10515672;28;20184;-69
2021/05/01 00:13:40;;;;;;;21.90;14.47;;;;;;;;;;10484664;28;20283;-69
2021/05/01 00:19:02;;;;;;;22.50;14.70;;;;;;;;;;10483327;28;20207;-70
2021/05/01 00:24:25;;;;;;;22.97;15.00;;;;;;;;;;10483449;28;20720;-70
2021/05/01 00:29:46;;;;;;;21.97;14.63;;;;;;;;;;10484768;28;20192;-71
2021/05/01 00:35:09;;;;;;;20.23;13.70;;;;;;;;;;10482012;28;20212;-70
2021/05/01 00:40:31;;;;;;;21.97;14.83;;;;;;;;;;10486662;28;20682;-70
2021/05/01 00:45:52;;;;;;;21.70;14.90;;;;;;;;;;10475677;28;20549;-69
2021/05/01 00:51:14;;;;;;;22.27;14.53;;;;;;;;;;10486791;28;20251;-69
2021/05/01 00:56:41;;;;;;;20.53;14.40;;;;;;;;;;10480294;28;20295;-70
2021/05/01 01:01:48;;;;;;;22.00;14.80;;;;;;;;;;10484350;28;20238;-71
2021/05/01 01:06:50;;;;;;;22.40;15.53;;;;;;;;;;10469196;28;20368;-71
2021/05/01 01:11:52;;;;;;;23.50;15.70;;;;;;;;;;10479140;28;20285;-70
2021/05/01 01:16:54;;;;;;;22.67;15.53;;;;;;;;;;10520084;28;20188;-71
2021/05/01 01:21:57;;;;;;;23.03;15.57;;;;;;;;;;10493385;28;20299;-69
2021/05/01 01:26:59;;;;;;;25.27;15.93;;;;;;;;;;10486779;28;20395;-69
2021/05/01 01:32:01;;;;;;;25.87;16.90;;;;;;;;;;10489461;28;20215;-70
2021/05/01 01:37:03;;;;;;;25.73;17.10;;;;;;;;;;10493581;28;20249;-71
2021/05/01 01:42:06;;;;;;;26.50;18.23;;;;;;;;;;10488672;28;20565;-70
2021/05/01 01:47:08;;;;;;;25.20;17.00;;;;;;;;;;10492408;28;20218;-70
2021/05/01 01:52:10;;;;;;;26.43;17.63;;;;;;;;;;10485796;28;20220;-70
2021/05/01 01:57:13;;;;;;;28.67;18.47;;;;;;;;;;10476499;28;20184;-70
2021/05/01 02:02:16;;;;;;;27.13;18.30;;;;;;;;;;10477787;28;20291;-69
2021/05/01 02:07:17;;;;;;;27.47;18.33;;;;;;;;;;10491022;28;20280;-70
2021/05/01 02:12:20;;;;;;;27.80;18.17;;;;;;;;;;10486947;28;20367;-70
2021/05/01 02:17:21;;;;;;;28.83;18.83;;;;;;;;;;10488633;28;20279;-69
2021/05/01 02:22:23;;;;;;;30.50;18.43;;;;;;;;;;10493402;28;20571;-69
2021/05/01 02:27:25;;;;;;;29.33;18.90;;;;;;;;;;10489050;28;20223;-72
2021/05/01 02:32:27;;;;;;;29.77;19.27;;;;;;;;;;10521163;28;20251;-71
2021/05/01 02:37:29;;;;;;;30.77;19.60;;;;;;;;;;10487477;28;20563;-70
2021/05/01 02:42:31;;;;;;;30.07;19.70;;;;;;;;;;10487657;28;20224;-70
2021/05/01 02:47:33;;;;;;;30.43;19.47;;;;;;;;;;10486742;28;20212;-70
2021/05/01 02:52:34;;;;;;;31.90;19.80;;;;;;;;;;10492103;28;20247;-70
2021/05/01 02:57:37;;;;;;;30.87;19.33;;;;;;;;;;10486745;28;20219;-70
2021/05/01 03:02:38;;;;;;;28.63;18.37;;;;;;;;;;10490370;28;20357;-69
2021/05/01 03:07:40;;;;;;;30.20;19.60;;;;;;;;;;10485735;28;20231;-69
2021/05/01 03:12:43;;;;;;;30.47;20.27;;;;;;;;;;10482686;28;20329;-71
2021/05/01 03:17:45;;;;;;;31.60;20.80;;;;;;;;;;10491301;28;20193;-70
2021/05/01 03:22:48;;;;;;;31.73;20.23;;;;;;;;;;10488663;28;20556;-69
2021/05/01 03:27:50;;;;;;;32.13;20.57;;;;;;;;;;10489981;28;20703;-69
2021/05/01 03:32:51;;;;;;;33.73;21.10;;;;;;;;;;10481136;28;20226;-69
2021/05/01 03:37:53;;;;;;;32.97;21.10;;;;;;;;;;10488135;28;20212;-70
2021/05/01 03:42:55;;;;;;;33.33;21.57;;;;;;;;;;10485031;28;20216;-68
2021/05/01 03:47:57;;;;;;;32.13;20.60;;;;;;;;;;10519780;28;20754;-69
2021/05/01 03:52:58;;;;;;;32.47;21.23;;;;;;;;;;10484719;28;20597;-68
2021/05/01 03:58:01;;;;;;;34.53;22.10;;;;;;;;;;10486761;28;20282;-69
2021/05/01 04:03:02;;;;;;;32.67;21.17;;;;;;;;;;10485557;28;20235;-69
2021/05/01 04:08:04;;;;;;;36.00;22.20;;;;;;;;;;10484928;28;20250;-69
2021/05/01 04:13:07;;;;;;;35.53;22.20;;;;;;;;;;10484093;28;20239;-69
2021/05/01 04:18:11;;;;;;;34.03;20.90;;;;;;;;;;10521374;28;20212;-70
2021/05/01 04:23:13;;;;;;;33.07;21.03;;;;;;;;;;10481084;28;20266;-71
2021/05/01 04:28:15;;;;;;;34.93;22.43;;;;;;;;;;10487058;28;20295;-68
2021/05/01 04:33:17;;;;;;;34.33;21.50;;;;;;;;;;10480993;28;20454;-68
2021/05/01 04:38:18;;;;;;;34.10;21.93;;;;;;;;;;10479919;28;20181;-69
2021/05/01 04:43:24;;;;;;;33.53;20.77;;;;;;;;;;10483736;28;20261;-67
2021/05/01 04:48:28;;;;;;;33.30;20.90;;;;;;;;;;10457046;28;20209;-71
2021/05/01 04:53:29;;;;;;;29.83;19.27;;;;;;;;;;10459915;28;20549;-69
2021/05/01 04:58:32;;;;;;;32.67;20.43;;;;;;;;;;10486980;28;20196;-69
2021/05/01 05:03:34;;;;;;;32.20;20.53;;;;;;;;;;10466801;28;20225;-70
2021/05/01 05:08:35;;;;;;;29.77;19.57;;;;;;;;;;10452705;28;20239;-69
2021/05/01 05:13:37;;;;;;;30.60;20.27;;;;;;;;;;10469270;28;20454;-69
2021/05/01 05:18:39;;;;;;;30.10;19.20;;;;;;;;;;10466463;28;20188;-67
2021/05/01 05:23:41;;;;;;;29.70;19.90;;;;;;;;;;10476004;28;20711;-69
2021/05/01 05:28:43;;;;;;;26.60;18.63;;;;;;;;;;10490226;28;20292;-70
2021/05/01 05:33:45;;;;;;;29.43;19.30;;;;;;;;;;10492971;28;20258;-70
2021/05/01 05:38:46;;;;;;;29.70;18.50;;;;;;;;;;10494229;28;20219;-70
2021/05/01 05:43:49;;;;;;;28.87;19.23;;;;;;;;;;10495352;28;20212;-70
2021/05/01 05:48:51;;;;;;;27.03;18.23;;;;;;;;;;10493125;28;20634;-70
2021/05/01 05:53:52;;;;;;;26.47;18.67;;;;;;;;;;10457557;28;20301;-69
2021/05/01 05:58:55;;;;;;;26.07;18.17;;;;;;;;;;10477859;28;20274;-71
2021/05/01 06:03:58;;;;;;;25.33;17.37;;;;;;;;;;10478465;28;20216;-69
2021/05/01 06:09:01;;;;;;;24.60;17.37;;;;;;;;;;10465336;28;20197;-71
2021/05/01 06:14:04;;;;;;;25.07;17.97;;;;;;;;;;10471430;28;20217;-69
2021/05/01 06:19:09;;;;;;;23.80;16.47;;;;;;;;;;10469390;28;20201;-70
2021/05/01 06:24:12;;;;;;;24.27;17.10;;;;;;;;;;10448665;28;20726;-69
2021/05/01 06:29:14;;;;;;;26.43;17.63;;;;;;;;;;10463029;28;20664;-70
2021/05/01 06:34:16;;;;;;;26.70;17.73;;;;;;;;;;10464923;28;20572;-70
2021/05/01 06:39:19;;;;;;;23.60;16.37;;;;;;;;;;10484626;28;20235;-69
2021/05/01 06:44:31;;;;;;;23.93;16.17;;;;;;;;;;10467254;28;554035;-68
2021/05/01 06:49:39;;;;;;;23.33;16.03;;;;;;;;;;10491028;28;20196;-70
2021/05/01 06:54:42;;;;;;;21.37;14.97;;;;;;;;;;10490295;28;20208;-69
2021/05/01 06:59:44;;;;;;;22.20;15.90;;;;;;;;;;10490289;28;20195;-69
2021/05/01 07:04:48;;;;;;;22.37;15.50;;;;;;;;;;10491197;28;20216;-69
2021/05/01 07:09:49;;;;;;;20.67;15.03;;;;;;;;;;10479684;28;20548;-69
2021/05/01 07:14:52;;;;;;;23.53;15.67;;;;;;;;;;10482496;28;20480;-69
2021/05/01 07:19:55;;;;;;;24.07;18.20;;;;;;;;;;10485219;28;20580;-70
2021/05/01 07:24:57;;;;;;;21.10;15.20;;;;;;;;;;10479327;28;20239;-67
2021/05/01 07:30:01;;;;;;;20.40;15.43;;;;;;;;;;10480578;28;20197;-69
2021/05/01 07:35:04;;;;;;;20.27;14.17;;;;;;;;;;10485256;28;20200;-68
2021/05/01 07:40:09;;;;;;;18.97;13.27;;;;;;;;;;10481404;28;20218;-71
2021/05/01 07:45:13;;;;;;;20.23;14.47;;;;;;;;;;10485837;28;20223;-69
2021/05/01 07:50:15;;;;;;;18.43;13.77;;;;;;;;;;10486009;28;20242;-69
2021/05/01 07:55:16;;;;;;;16.00;12.50;;;;;;;;;;10486162;28;20341;-68
2021/05/01 08:00:22;;;;;;;15.80;11.20;;;;;;;;;;10488522;28;20238;-69
2021/05/01 08:05:23;;;;;;;15.67;11.53;;;;;;;;;;10478627;28;20345;-68
2021/05/01 08:10:25;;;;;;;13.57;9.97;;;;;;;;;;10484023;28;20228;-68
2021/05/01 08:15:30;;;;;;;14.53;10.47;;;;;;;;;;10483511;28;20416;-71
2021/05/01 08:20:32;;;;;;;13.30;9.90;;;;;;;;;;10484413;28;20288;-69
2021/05/01 08:25:34;;;;;;;13.02;10.95;;;;;;;;;;10469586;28;20215;-70
2021/05/01 08:30:36;;;;;;;11.95;9.38;;;;;;;;;;10480692;28;20664;-71
2021/05/01 08:35:38;;;;;;;12.00;9.77;;;;;;;;;;10483881;28;20199;-71
2021/05/01 08:40:40;;;;;;;11.90;10.20;;;;;;;;;;10474614;28;20852;-71
2021/05/01 08:45:44;;;;;;;11.35;9.75;;;;;;;;;;10450015;28;20212;-70
2021/05/01 08:50:47;;;;;;;13.25;11.35;;;;;;;;;;10492118;28;20204;-70
2021/05/01 08:55:49;;;;;;;13.50;10.75;;;;;;;;;;10476012;28;20212;-71
2021/05/01 09:00:52;;;;;;;14.15;10.52;;;;;;;;;;10447912;28;20254;-71
2021/05/01 09:05:54;;;;;;;13.57;9.88;;;;;;;;;;10480509;28;20204;-71
2021/05/01 09:10:56;;;;;;;13.90;10.10;;;;;;;;;;10486303;28;20222;-71
2021/05/01 09:15:59;;;;;;;13.45;10.32;;;;;;;;;;10477689;28;20299;-71
2021/05/01 09:21:11;;;;;;;13.30;9.93;;;;;;;;;;10462208;28;20220;-70
2021/05/01 09:26:14;;;;;;;14.20;10.40;;;;;;;;;;10455090;28;20751;-71
2021/05/01 09:31:17;;;;;;;13.97;10.30;;;;;;;;;;10455693;28;20638;-72
2021/05/01 09:36:19;;;;;;;13.83;9.87;;;;;;;;;;10465510;28;20204;-69
2021/05/01 09:41:22;;;;;;;14.87;10.40;;;;;;;;;;10476996;28;20213;-71
2021/05/01 09:46:25;;;;;;;15.93;10.50;;;;;;;;;;10480424;28;20311;-70
2021/05/01 09:51:30;;;;;;;13.27;9.37;;;;;;;;;;10490799;28;20213;-71
2021/05/01 09:56:31;;;;;;;15.10;10.83;;;;;;;;;;10487929;28;20629;-70
2021/05/01 10:01:34;;;;;;;13.67;10.13;;;;;;;;;;10490240;28;20228;-70
2021/05/01 10:06:36;;;;;;;15.30;9.90;;;;;;;;;;10450932;28;20295;-70
2021/05/01 10:11:38;;;;;;;14.03;9.80;;;;;;;;;;10468843;28;20227;-71
2021/05/01 10:16:52;;;;;;;15.07;10.63;;;;;;;;;;10443753;28;20196;-72
2021/05/01 10:21:54;;;;;;;14.70;10.03;;;;;;;;;;10467053;28;20242;-71
2021/05/01 10:26:56;;;;;;;15.37;10.53;;;;;;;;;;10491283;28;20708;-73
2021/05/01 10:31:58;;;;;;;15.50;10.57;;;;;;;;;;10493440;28;20228;-70
2021/05/01 10:37:02;;;;;;;17.83;11.97;;;;;;;;;;10488543;28;20199;-70
2021/05/01 10:42:04;;;;;;;14.73;9.77;;;;;;;;;;10490395;28;20208;-69
2021/05/01 10:47:09;;;;;;;16.00;10.27;;;;;;;;;;10490157;28;20308;-71
2021/05/01 10:52:13;;;;;;;16.37;11.17;;;;;;;;;;10489259;28;20553;-69
2021/05/01 10:57:14;;;;;;;18.43;11.47;;;;;;;;;;10485696;28;20644;-71
2021/05/01 11:02:17;;;;;;;15.80;10.63;;;;;;;;;;10487586;28;20212;-69
2021/05/01 11:07:22;;;;;;;15.73;10.83;;;;;;;;;;10480492;28;20230;-69
2021/05/01 11:12:24;;;;;;;15.87;11.23;;;;;;;;;;10480398;28;20232;-69
2021/05/01 11:17:34;;;;;;;16.57;11.50;;;;;;;;;;10482913;28;20646;-71
2021/05/01 11:22:37;;;;;;;15.50;10.60;;;;;;;;;;10471565;28;20740;-70
2021/05/01 11:27:39;;;;;;;14.80;9.97;;;;;;;;;;10515411;28;20244;-70
2021/05/01 11:32:41;;;;;;;14.40;9.53;;;;;;;;;;10480543;28;20227;-70
2021/05/01 11:37:47;;;;;;;14.03;9.77;;;;;;;;;;10470467;28;20298;-69
2021/05/01 11:42:50;;;;;;;14.63;10.10;;;;;;;;;;10479216;28;20646;-71
2021/05/01 11:47:54;;;;;;;14.67;9.80;;;;;;;;;;10483320;28;20212;-70
2021/05/01 11:53:03;;;;;;;13.40;9.23;;;;;;;;;;10483838;28;20216;-70
2021/05/01 11:58:04;;;;;;;13.70;9.13;;;;;;;;;;10485348;28;20240;-69
2021/05/01 12:03:20;;;;;;;15.47;9.90;;;;;;;;;;10484767;28;20204;-70
2021/05/01 12:08:23;;;;;;;14.33;8.73;;;;;;;;;;10475362;28;20302;-71
2021/05/01 12:13:27;;;;;;;13.00;8.93;;;;;;;;;;10475907;28;20273;-71
2021/05/01 12:18:41;;;;;;;12.60;9.23;;;;;;;;;;10485345;28;20235;-70
2021/05/01 12:23:43;;;;;;;14.73;9.17;;;;;;;;;;10483869;28;20208;-71
2021/05/01 12:28:45;;;;;;;13.20;8.77;;;;;;;;;;10481682;28;20667;-70
2021/05/01 12:33:51;;;;;;;13.47;8.97;;;;;;;;;;10482067;28;20356;-70
2021/05/01 12:38:57;;;;;;;14.90;9.57;;;;;;;;;;10472518;28;20680;-69
2021/05/01 12:44:26;;;;;;;14.83;10.07;;;;;;;;;;10474880;28;20219;-70
2021/05/01 12:49:32;;;;;;;12.77;8.70;;;;;;;;;;10461256;28;20231;-72
2021/05/01 12:54:36;;;;;;;15.37;9.83;;;;;;;;;;10466776;28;20576;-70
2021/05/01 12:59:40;;;;;;;18.90;12.47;;;;;;;;;;10477937;28;20606;-73
2021/05/01 13:05:01;;;;;;;22.70;15.13;;;;;;;;;;10467846;28;20212;-71
2021/05/01 13:10:03;;;;;;;21.63;14.40;;;;;;;;;;10485901;28;20188;-72
2021/05/01 13:15:06;;;;;;;23.23;15.23;;;;;;;;;;10485485;28;21019;-71
2021/05/01 13:20:11;;;;;;;21.17;14.10;;;;;;;;;;10479215;28;20202;-70
2021/05/01 13:25:13;;;;;;;21.87;14.13;;;;;;;;;;10476508;28;20588;-72
2021/05/01 13:30:16;;;;;;;22.00;14.07;;;;;;;;;;10477163;28;20734;-69
2021/05/01 13:35:19;;;;;;;21.20;13.53;;;;;;;;;;10476297;28;20216;-69
2021/05/01 13:40:22;;;;;;;21.63;14.23;;;;;;;;;;10489456;28;20318;-71
2021/05/01 13:45:24;;;;;;;19.67;13.37;;;;;;;;;;10476918;28;20232;-70
2021/05/01 13:50:27;;;;;;;18.77;14.03;;;;;;;;;;10500359;28;20656;-71
2021/05/01 13:55:30;;;;;;;18.50;13.93;;;;;;;;;;10500965;28;20220;-71
2021/05/01 14:00:33;;;;;;;18.70;14.27;;;;;;;;;;10491190;28;20196;-69
2021/05/01 14:05:35;;;;;;;20.20;15.53;;;;;;;;;;10489733;28;20227;-70
2021/05/01 14:10:37;;;;;;;19.60;15.17;;;;;;;;;;10489938;28;20196;-71
2021/05/01 14:15:39;;;;;;;17.97;15.17;;;;;;;;;;10490615;28;20192;-71
2021/05/01 14:20:44;;;;;;;18.47;14.37;;;;;;;;;;10487862;28;20201;-70
2021/05/01 14:25:46;;;;;;;19.30;14.40;;;;;;;;;;10487444;28;20258;-71
2021/05/01 14:36:08;;;;;;;18.63;14.50;;;;;;;;;;10485894;28;20188;-70
2021/05/01 14:41:18;;;;;;;19.30;16.20;;;;;;;;;;10486491;28;20212;-71
2021/05/01 14:46:20;;;;;;;19.63;15.77;;;;;;;;;;10491809;28;20293;-70
2021/05/01 14:51:26;;;;;;;18.73;15.77;;;;;;;;;;10488859;28;20212;-70
2021/05/01 14:56:28;;;;;;;19.00;16.33;;;;;;;;;;10507018;28;20234;-69
2021/05/01 15:01:29;;;;;;;22.20;17.83;;;;;;;;;;10509393;28;20715;-70
2021/05/01 15:06:32;;;;;;;19.83;17.17;;;;;;;;;;10505112;28;20775;-70
2021/05/01 15:11:33;;;;;;;20.37;16.47;;;;;;;;;;10509672;28;20324;-69
2021/05/01 15:16:51;;;;;;;21.17;16.53;;;;;;;;;;10502567;28;20573;-69
2021/05/01 15:21:59;;;;;;;18.07;14.87;;;;;;;;;;10505490;28;20212;-70
2021/05/01 15:27:05;;;;;;;18.57;15.17;;;;;;;;;;10507387;28;20210;-70
2021/05/01 15:32:08;;;;;;;20.30;16.03;;;;;;;;;;10501995;28;20684;-67
2021/05/01 15:37:10;;;;;;;17.43;14.70;;;;;;;;;;10500182;28;20603;-68
2021/05/01 15:42:13;;;;;;;18.53;14.50;;;;;;;;;;10499092;28;20208;-69
2021/05/01 15:47:14;;;;;;;17.90;14.43;;;;;;;;;;10498969;28;20580;-71
2021/05/01 15:52:17;;;;;;;18.17;14.77;;;;;;;;;;10501804;28;20211;-69
2021/05/01 15:57:24;;;;;;;15.97;11.77;;;;;;;;;;10502262;28;20192;-69
2021/05/01 16:02:25;;;;;;;15.83;12.07;;;;;;;;;;10495070;28;20295;-70
2021/05/01 16:07:28;;;;;;;15.77;11.57;;;;;;;;;;10494063;28;20220;-67
2021/05/01 16:12:30;;;;;;;14.83;10.57;;;;;;;;;;10500703;28;20698;-69
2021/05/01 16:17:32;;;;;;;14.20;10.27;;;;;;;;;;10497418;28;20200;-69
2021/05/01 16:22:35;;;;;;;16.50;11.07;;;;;;;;;;10500246;28;20584;-69
2021/05/01 16:27:37;;;;;;;14.23;9.80;;;;;;;;;;10496019;28;20211;-69
2021/05/01 16:32:39;;;;;;;14.80;10.40;;;;;;;;;;10497508;28;20219;-68
2021/05/01 16:37:44;;;;;;;15.63;10.23;;;;;;;;;;10495128;28;20360;-69
2021/05/01 16:42:45;;;;;;;14.67;10.77;;;;;;;;;;10498472;28;20223;-69
2021/05/01 16:47:47;;;;;;;16.60;11.97;;;;;;;;;;10502597;28;20294;-70
2021/05/01 16:52:50;;;;;;;18.47;13.13;;;;;;;;;;10503424;28;20215;-70
2021/05/01 16:57:51;;;;;;;18.67;13.37;;;;;;;;;;10508675;28;20191;-70
2021/05/01 17:02:53;;;;;;;22.17;14.93;;;;;;;;;;10492449;28;20246;-69
2021/05/01 17:07:55;;;;;;;20.33;14.70;;;;;;;;;;10501655;28;20222;-70
2021/05/01 17:12:57;;;;;;;21.87;15.23;;;;;;;;;;10505241;28;20294;-71
2021/05/01 17:17:58;;;;;;;23.70;16.57;;;;;;;;;;10508514;28;20234;-69
2021/05/01 17:23:01;;;;;;;24.87;17.27;;;;;;;;;;10494382;28;20215;-68
2021/05/01 17:28:03;;;;;;;26.57;18.27;;;;;;;;;;10508626;28;20556;-70
2021/05/01 17:33:05;;;;;;;26.63;17.73;;;;;;;;;;10503171;28;20219;-69
2021/05/01 17:38:07;;;;;;;28.73;19.40;;;;;;;;;;10506145;28;20241;-70
2021/05/01 17:43:09;;;;;;;27.20;19.00;;;;;;;;;;10512870;28;20207;-69
2021/05/01 17:48:11;;;;;;;29.87;20.27;;;;;;;;;;10504064;28;20513;-69
2021/05/01 17:53:13;;;;;;;31.27;20.93;;;;;;;;;;10504119;28;20215;-70
2021/05/01 17:58:15;;;;;;;27.40;19.57;;;;;;;;;;10504842;28;20221;-71
2021/05/01 18:03:38;;;;;;;28.07;18.70;;;;;;;;;;10502580;28;20261;-71
2021/05/01 18:08:41;;;;;;;28.40;19.27;;;;;;;;;;10500989;28;20216;-71
2021/05/01 18:13:42;;;;;;;27.07;17.97;;;;;;;;;;10492205;28;20700;-69
2021/05/01 18:18:44;;;;;;;25.93;18.10;;;;;;;;;;10505429;28;20192;-69
2021/05/01 18:23:46;;;;;;;27.27;18.27;;;;;;;;;;10502296;28;20318;-69
2021/05/01 18:28:48;;;;;;;27.27;17.97;;;;;;;;;;10507212;28;20234;-69
2021/05/01 18:33:51;;;;;;;28.30;18.97;;;;;;;;;;10501958;28;20220;-69
2021/05/01 18:38:54;;;;;;;26.30;17.97;;;;;;;;;;10505129;28;20185;-70
2021/05/01 18:43:55;;;;;;;27.70;19.27;;;;;;;;;;10505118;28;20289;-70
2021/05/01 18:48:57;;;;;;;25.77;17.90;;;;;;;;;;10503319;28;20232;-69
2021/05/01 18:53:59;;;;;;;25.67;17.30;;;;;;;;;;10506260;28;20212;-67
2021/05/01 18:59:01;;;;;;;24.73;17.80;;;;;;;;;;10504684;28;20185;-68
2021/05/01 19:04:03;;;;;;;24.67;17.10;;;;;;;;;;10500999;28;20212;-70
2021/05/01 19:09:05;;;;;;;24.17;17.50;;;;;;;;;;10499142;28;20212;-69
2021/05/01 19:14:08;;;;;;;21.83;15.37;;;;;;;;;;10497223;28;20239;-69
2021/05/01 19:19:10;;;;;;;21.83;14.90;;;;;;;;;;10499666;28;20203;-69
2021/05/01 19:24:14;;;;;;;21.27;14.30;;;;;;;;;;10497927;28;20710;-70
2021/05/01 19:29:16;;;;;;;21.27;14.60;;;;;;;;;;10501198;28;20239;-69
2021/05/01 19:34:17;;;;;;;20.10;13.37;;;;;;;;;;10500093;28;20679;-69
2021/05/01 19:39:20;;;;;;;21.77;14.63;;;;;;;;;;10506209;28;20192;-69
2021/05/01 19:44:23;;;;;;;18.17;12.93;;;;;;;;;;10500579;28;20566;-70
2021/05/01 19:49:24;;;;;;;18.43;12.70;;;;;;;;;;10493831;28;20247;-69
2021/05/01 19:54:27;;;;;;;18.20;11.50;;;;;;;;;;10484978;28;20318;-71
2021/05/01 19:59:31;;;;;;;15.57;10.67;;;;;;;;;;10485202;28;20271;-69
2021/05/01 20:04:32;;;;;;;16.23;10.93;;;;;;;;;;10482078;28;20266;-70
2021/05/01 20:09:35;;;;;;;16.97;10.27;;;;;;;;;;10480455;28;20574;-69
2021/05/01 20:14:37;;;;;;;14.83;9.47;;;;;;;;;;10470713;28;20220;-69
2021/05/01 20:19:38;;;;;;;14.57;9.73;;;;;;;;;;10477612;28;20199;-69
2021/05/01 20:24:41;;;;;;;15.30;9.20;;;;;;;;;;10479826;28;20216;-69
2021/05/01 20:29:45;;;;;;;15.83;9.23;;;;;;;;;;10478972;28;20304;-71
2021/05/01 20:34:47;;;;;;;13.73;8.67;;;;;;;;;;10475215;28;20376;-71
2021/05/01 20:39:49;;;;;;;13.47;8.50;;;;;;;;;;10480415;28;20674;-70
2021/05/01 20:44:51;;;;;;;12.53;8.17;;;;;;;;;;10486175;28;20315;-74
2021/05/01 20:49:53;;;;;;;12.37;7.80;;;;;;;;;;10483186;28;20244;-74
2021/05/01 20:54:55;;;;;;;11.50;7.80;;;;;;;;;;10484227;28;20243;-74
2021/05/01 20:59:57;;;;;;;10.57;6.67;;;;;;;;;;10481272;28;20305;-74
2021/05/01 21:04:58;;;;;;;13.03;7.77;;;;;;;;;;10482810;28;20579;-74
2021/05/01 21:10:01;;;;;;;13.27;8.17;;;;;;;;;;10483527;28;20739;-73
2021/05/01 21:15:03;;;;;;;14.10;10.05;;;;;;;;;;10475619;28;20446;-71
2021/05/01 21:20:04;;;;;;;13.93;8.57;;;;;;;;;;10481196;28;20200;-72
2021/05/01 21:25:07;;;;;;;12.67;8.20;;;;;;;;;;10474737;28;20252;-72
2021/05/01 21:30:09;;;;;;;11.93;7.23;;;;;;;;;;10478965;28;20553;-70
2021/05/01 21:35:11;;;;;;;14.60;8.30;;;;;;;;;;10482165;28;20212;-71
2021/05/01 21:40:13;;;;;;;13.90;8.80;;;;;;;;;;10488972;28;20222;-71
2021/05/01 21:45:47;;;;;;;13.37;7.43;;;;;;;;;;10486258;28;20331;-71
2021/05/01 21:50:52;;;;;;;11.43;6.70;;;;;;;;;;10488113;28;20603;-71
2021/05/01 21:55:55;;;;;;;11.03;6.33;;;;;;;;;;10496101;28;20279;-71
2021/05/01 22:01:07;;;;;;;13.13;7.20;;;;;;;;;;10491070;28;20265;-71
2021/05/01 22:06:08;;;;;;;12.97;7.00;;;;;;;;;;10473387;28;20248;-71
2021/05/01 22:11:12;;;;;;;11.00;5.80;;;;;;;;;;10478083;28;20216;-71
2021/05/01 22:16:14;;;;;;;11.40;6.23;;;;;;;;;;10483470;28;20193;-71
2021/05/01 22:21:22;;;;;;;9.70;5.70;;;;;;;;;;10488265;28;20299;-71
2021/05/01 22:26:25;;;;;;;12.20;5.93;;;;;;;;;;10489752;28;20204;-71
2021/05/01 22:31:27;;;;;;;8.90;4.80;;;;;;;;;;10490692;28;20692;-71
2021/05/01 22:36:29;;;;;;;9.80;5.40;;;;;;;;;;10489481;28;20200;-72
2021/05/01 22:41:32;;;;;;;9.40;5.23;;;;;;;;;;10486552;28;20246;-72
2021/05/01 22:46:34;;;;;;;9.63;5.23;;;;;;;;;;10488939;28;20255;-71
2021/05/01 22:51:37;;;;;;;8.57;4.73;;;;;;;;;;10485403;28;20301;-71
2021/05/01 22:56:40;;;;;;;8.33;4.33;;;;;;;;;;10486372;28;20180;-72
2021/05/01 23:01:42;;;;;;;8.73;4.40;;;;;;;;;;10484213;28;20534;-71
2021/05/01 23:06:46;;;;;;;5.40;2.87;;;;;;;;;;10486952;28;20259;-71
2021/05/01 23:11:48;;;;;;;8.00;3.93;;;;;;;;;;10483945;28;20700;-71
2021/05/01 23:16:50;;;;;;;8.57;4.20;;;;;;;;;;10482249;28;20597;-72
2021/05/01 23:21:52;;;;;;;5.37;2.50;;;;;;;;;;10488180;28;20216;-70
2021/05/01 23:27:01;;;;;;;7.13;3.47;;;;;;;;;;10488940;28;20214;-72
2021/05/01 23:32:03;;;;;;;5.50;2.87;;;;;;;;;;10488316;28;20262;-71
2021/05/01 23:37:05;;;;;;;7.20;3.67;;;;;;;;;;10487827;28;20184;-71
2021/05/01 23:42:08;;;;;;;6.53;3.10;;;;;;;;;;10487831;28;20273;-70
2021/05/01 23:47:10;;;;;;;8.33;3.83;;;;;;;;;;10512008;28;20219;-70
2021/05/01 23:52:13;;;;;;;8.03;4.17;;;;;;;;;;10481504;28;20223;-70
2021/05/01 23:57:16;;;;;;;4.70;2.53;;;;;;;;;;10480734;28;20177;-69
